sensor_id;sensor_type;location;lat;lon;timestamp;P1;durP1;ratioP1;P2;durP2;ratioP2
7759;SDS011;3924;48.830;9.262;2023-02-08T00:00:47;10.47;;;6.70;;
7759;SDS011;3924;48.830;9.262;2023-02-08T00:03:14;8.83;;;6.27;;
7759;SDS011;3924;48.830;9.262;2023-02-08T00:05:41;7.70;;;5.50;;
7759;SDS011;3924;48.830;9.262;2023-02-08T00:08:07;10.73;;;6.60;;
7759;SDS011;3924;48.830;9.262;2023-02-08T00:10:34;8.47;;;6.10;;
7759;SDS011;3924;48.830;9.262;2023-02-08T00:13:00;8.37;;;5.97;;
7759;SDS011;3924;48.830;9.262;2023-02-08T00:15:27;8.17;;;5.30;;
7759;SDS011;3924;48.830;9.262;2023-02-08T00:17:54;9.60;;;6.40;;
7759;SDS011;3924;48.830;9.262;2023-02-08T00:20:20;14.03;;;6.43;;
7759;SDS011;3924;48.830;9.262;2023-02-08T00:22:47;9.57;;;5.87;;
7759;SDS011;3924;48.830;9.262;2023-02-08T00:25:13;9.60;;;6.70;;
7759;SDS011;3924;48.830;9.262;2023-02-08T00:27:40;10.33;;;6.00;;
7759;SDS011;3924;48.830;9.262;2023-02-08T00:30:07;7.33;;;5.40;;
7759;SDS011;3924;48.830;9.262;2023-02-08T00:32:34;9.77;;;6.13;;
7759;SDS011;3924;48.830;9.262;2023-02-08T00:35:01;9.03;;;5.23;;
7759;SDS011;3924;48.830;9.262;2023-02-08T00:37:27;8.67;;;5.40;;
7759;SDS011;3924;48.830;9.262;2023-02-08T00:39:53;7.90;;;5.67;;
7759;SDS011;3924;48.830;9.262;2023-02-08T00:42:20;6.77;;;5.17;;
7759;SDS011;3924;48.830;9.262;2023-02-08T00:44:46;7.10;;;5.40;;
7759;SDS011;3924;48.830;9.262;2023-02-08T00:47:13;7.77;;;5.20;;
7759;SDS011;3924;48.830;9.262;2023-02-08T00:49:39;8.37;;;5.67;;
7759;SDS011;3924;48.830;9.262;2023-02-08T00:52:06;7.73;;;5.33;;
7759;SDS011;3924;48.830;9.262;2023-02-08T00:54:32;10.37;;;6.37;;
7759;SDS011;3924;48.830;9.262;2023-02-08T00:56:59;9.87;;;6.10;;
7759;SDS011;3924;48.830;9.262;2023-02-08T00:59:25;7.43;;;5.60;;
7759;SDS011;3924;48.830;9.262;2023-02-08T01:01:52;9.00;;;5.87;;
7759;SDS011;3924;48.830;9.262;2023-02-08T01:04:19;5.97;;;5.37;;
7759;SDS011;3924;48.830;9.262;2023-02-08T01:06:45;8.67;;;5.77;;
7759;SDS011;3924;48.830;9.262;2023-02-08T01:09:12;7.40;;;5.40;;
7759;SDS011;3924;48.830;9.262;2023-02-08T01:11:38;10.27;;;6.13;;
7759;SDS011;3924;48.830;9.262;2023-02-08T01:14:05;6.37;;;5.43;;
7759;SDS011;3924;48.830;9.262;2023-02-08T01:16:32;8.77;;;6.03;;
7759;SDS011;3924;48.830;9.262;2023-02-08T01:19:00;10.00;;;6.10;;
7759;SDS011;3924;48.830;9.262;2023-02-08T01:21:29;11.00;;;6.80;;
7759;SDS011;3924;48.830;9.262;2023-02-08T01:23:57;9.27;;;6.00;;
7759;SDS011;3924;48.830;9.262;2023-02-08T01:26:24;9.20;;;6.40;;
7759;SDS011;3924;48.830;9.262;2023-02-08T01:28:52;13.23;;;6.87;;
7759;SDS011;3924;48.830;9.262;2023-02-08T01:31:21;8.30;;;6.27;;
7759;SDS011;3924;48.830;9.262;2023-02-08T01:33:50;9.30;;;6.37;;
7759;SDS011;3924;48.830;9.262;2023-02-08T01:36:16;9.57;;;5.87;;
7759;SDS011;3924;48.830;9.262;2023-02-08T01:38:43;10.10;;;6.73;;
7759;SDS011;3924;48.830;9.262;2023-02-08T01:41:13;10.73;;;7.17;;
7759;SDS011;3924;48.830;9.262;2023-02-08T01:46:52;11.60;;;8.67;;
7759;SDS011;3924;48.830;9.262;2023-02-08T01:49:34;10.90;;;7.30;;
7759;SDS011;3924;48.830;9.262;2023-02-08T01:52:10;11.83;;;7.20;;
7759;SDS011;3924;48.830;9.262;2023-02-08T01:54:46;10.90;;;6.67;;
7759;SDS011;3924;48.830;9.262;2023-02-08T01:57:16;11.63;;;7.97;;
7759;SDS011;3924;48.830;9.262;2023-02-08T01:59:48;17.53;;;10.20;;
7759;SDS011;3924;48.830;9.262;2023-02-08T02:02:20;33.10;;;16.70;;
7759;SDS011;3924;48.830;9.262;2023-02-08T02:04:48;27.37;;;14.73;;
7759;SDS011;3924;48.830;9.262;2023-02-08T02:07:17;34.17;;;17.33;;
7759;SDS011;3924;48.830;9.262;2023-02-08T02:10:02;23.03;;;13.40;;
7759;SDS011;3924;48.830;9.262;2023-02-08T02:12:34;16.00;;;10.23;;
7759;SDS011;3924;48.830;9.262;2023-02-08T02:15:03;14.50;;;8.33;;
7759;SDS011;3924;48.830;9.262;2023-02-08T02:17:30;10.10;;;6.40;;
7759;SDS011;3924;48.830;9.262;2023-02-08T02:34:08;9.77;;;7.23;;
7759;SDS011;3924;48.830;9.262;2023-02-08T02:42:28;11.13;;;6.57;;
7759;SDS011;3924;48.830;9.262;2023-02-08T02:51:09;9.23;;;5.80;;
7759;SDS011;3924;48.830;9.262;2023-02-08T02:53:58;10.07;;;6.53;;
7759;SDS011;3924;48.830;9.262;2023-02-08T02:56:30;9.73;;;6.53;;
7759;SDS011;3924;48.830;9.262;2023-02-08T02:59:04;11.73;;;6.67;;
7759;SDS011;3924;48.830;9.262;2023-02-08T03:01:34;9.60;;;6.03;;
7759;SDS011;3924;48.830;9.262;2023-02-08T03:04:11;9.30;;;6.33;;
7759;SDS011;3924;48.830;9.262;2023-02-08T03:07:26;12.63;;;5.93;;
7759;SDS011;3924;48.830;9.262;2023-02-08T03:09:38;9.57;;;5.90;;
7759;SDS011;3924;48.830;9.262;2023-02-08T03:21:39;9.03;;;5.77;;
7759;SDS011;3924;48.830;9.262;2023-02-08T03:27:21;8.43;;;5.93;;
7759;SDS011;3924;48.830;9.262;2023-02-08T03:32:40;10.70;;;6.10;;
7759;SDS011;3924;48.830;9.262;2023-02-08T03:35:20;9.40;;;5.57;;
7759;SDS011;3924;48.830;9.262;2023-02-08T03:38:02;11.63;;;7.50;;
7759;SDS011;3924;48.830;9.262;2023-02-08T03:40:34;7.67;;;5.60;;
7759;SDS011;3924;48.830;9.262;2023-02-08T03:43:10;11.17;;;7.17;;
7759;SDS011;3924;48.830;9.262;2023-02-08T03:45:42;9.77;;;6.47;;
7759;SDS011;3924;48.830;9.262;2023-02-08T03:48:16;7.93;;;6.30;;
7759;SDS011;3924;48.830;9.262;2023-02-08T03:50:48;10.67;;;6.77;;
7759;SDS011;3924;48.830;9.262;2023-02-08T03:53:19;8.53;;;5.87;;
7759;SDS011;3924;48.830;9.262;2023-02-08T03:55:48;9.57;;;6.90;;
7759;SDS011;3924;48.830;9.262;2023-02-08T03:58:22;8.97;;;6.27;;
7759;SDS011;3924;48.830;9.262;2023-02-08T04:00:56;11.30;;;6.77;;
7759;SDS011;3924;48.830;9.262;2023-02-08T04:03:29;10.60;;;6.27;;
7759;SDS011;3924;48.830;9.262;2023-02-08T04:05:57;9.00;;;6.10;;
7759;SDS011;3924;48.830;9.262;2023-02-08T04:08:24;12.50;;;6.40;;
7759;SDS011;3924;48.830;9.262;2023-02-08T04:10:51;10.10;;;6.53;;
7759;SDS011;3924;48.830;9.262;2023-02-08T04:13:17;9.40;;;6.87;;
7759;SDS011;3924;48.830;9.262;2023-02-08T04:15:44;8.33;;;6.17;;
7759;SDS011;3924;48.830;9.262;2023-02-08T04:18:10;13.97;;;6.60;;
7759;SDS011;3924;48.830;9.262;2023-02-08T04:20:37;8.53;;;6.43;;
7759;SDS011;3924;48.830;9.262;2023-02-08T04:23:04;11.00;;;7.30;;
7759;SDS011;3924;48.830;9.262;2023-02-08T04:25:31;9.83;;;6.27;;
7759;SDS011;3924;48.830;9.262;2023-02-08T04:27:57;8.23;;;6.23;;
7759;SDS011;3924;48.830;9.262;2023-02-08T04:30:25;11.10;;;6.80;;
7759;SDS011;3924;48.830;9.262;2023-02-08T04:32:51;10.43;;;7.20;;
7759;SDS011;3924;48.830;9.262;2023-02-08T04:35:17;10.83;;;6.70;;
7759;SDS011;3924;48.830;9.262;2023-02-08T04:37:44;12.23;;;7.47;;
7759;SDS011;3924;48.830;9.262;2023-02-08T04:40:11;9.03;;;6.83;;
7759;SDS011;3924;48.830;9.262;2023-02-08T04:42:37;9.60;;;6.73;;
7759;SDS011;3924;48.830;9.262;2023-02-08T04:45:04;10.97;;;6.97;;
7759;SDS011;3924;48.830;9.262;2023-02-08T04:47:30;10.90;;;7.27;;
7759;SDS011;3924;48.830;9.262;2023-02-08T04:49:57;8.40;;;7.17;;
7759;SDS011;3924;48.830;9.262;2023-02-08T04:52:23;13.50;;;7.47;;
7759;SDS011;3924;48.830;9.262;2023-02-08T04:54:50;9.27;;;7.17;;
7759;SDS011;3924;48.830;9.262;2023-02-08T04:57:16;10.53;;;7.03;;
7759;SDS011;3924;48.830;9.262;2023-02-08T04:59:43;12.30;;;7.50;;
7759;SDS011;3924;48.830;9.262;2023-02-08T05:02:09;12.63;;;8.23;;
7759;SDS011;3924;48.830;9.262;2023-02-08T05:04:36;9.57;;;7.33;;
7759;SDS011;3924;48.830;9.262;2023-02-08T05:07:02;17.50;;;8.03;;
7759;SDS011;3924;48.830;9.262;2023-02-08T05:09:29;9.33;;;7.20;;
7759;SDS011;3924;48.830;9.262;2023-02-08T05:11:55;12.00;;;7.97;;
7759;SDS011;3924;48.830;9.262;2023-02-08T05:14:22;11.07;;;6.70;;
7759;SDS011;3924;48.830;9.262;2023-02-08T05:16:48;10.50;;;7.60;;
7759;SDS011;3924;48.830;9.262;2023-02-08T05:19:15;12.23;;;7.10;;
7759;SDS011;3924;48.830;9.262;2023-02-08T05:21:41;10.33;;;7.40;;
7759;SDS011;3924;48.830;9.262;2023-02-08T05:24:08;9.13;;;7.07;;
7759;SDS011;3924;48.830;9.262;2023-02-08T05:26:38;10.73;;;7.33;;
7759;SDS011;3924;48.830;9.262;2023-02-08T05:29:05;9.47;;;7.37;;
7759;SDS011;3924;48.830;9.262;2023-02-08T05:31:31;11.10;;;7.17;;
7759;SDS011;3924;48.830;9.262;2023-02-08T05:33:58;18.77;;;8.53;;
7759;SDS011;3924;48.830;9.262;2023-02-08T05:36:25;12.83;;;7.53;;
7759;SDS011;3924;48.830;9.262;2023-02-08T05:38:52;13.60;;;7.80;;
7759;SDS011;3924;48.830;9.262;2023-02-08T05:41:18;10.87;;;7.47;;
7759;SDS011;3924;48.830;9.262;2023-02-08T05:43:45;10.83;;;7.87;;
7759;SDS011;3924;48.830;9.262;2023-02-08T05:46:12;12.97;;;7.87;;
7759;SDS011;3924;48.830;9.262;2023-02-08T05:48:38;11.57;;;6.80;;
7759;SDS011;3924;48.830;9.262;2023-02-08T05:51:05;9.27;;;6.43;;
7759;SDS011;3924;48.830;9.262;2023-02-08T05:53:32;11.20;;;7.30;;
7759;SDS011;3924;48.830;9.262;2023-02-08T05:55:59;11.40;;;7.57;;
7759;SDS011;3924;48.830;9.262;2023-02-08T05:58:25;10.60;;;7.10;;
7759;SDS011;3924;48.830;9.262;2023-02-08T06:00:52;10.67;;;7.70;;
7759;SDS011;3924;48.830;9.262;2023-02-08T06:03:18;13.63;;;7.83;;
7759;SDS011;3924;48.830;9.262;2023-02-08T06:05:47;11.50;;;7.53;;
7759;SDS011;3924;48.830;9.262;2023-02-08T06:08:14;11.77;;;7.10;;
7759;SDS011;3924;48.830;9.262;2023-02-08T06:10:42;10.43;;;7.10;;
7759;SDS011;3924;48.830;9.262;2023-02-08T06:13:08;14.57;;;8.00;;
7759;SDS011;3924;48.830;9.262;2023-02-08T06:15:35;12.97;;;7.70;;
7759;SDS011;3924;48.830;9.262;2023-02-08T06:18:01;10.60;;;7.43;;
7759;SDS011;3924;48.830;9.262;2023-02-08T06:20:28;11.17;;;7.10;;
7759;SDS011;3924;48.830;9.262;2023-02-08T06:22:54;9.97;;;7.63;;
7759;SDS011;3924;48.830;9.262;2023-02-08T06:25:21;9.80;;;7.10;;
7759;SDS011;3924;48.830;9.262;2023-02-08T06:27:48;10.90;;;6.80;;
7759;SDS011;3924;48.830;9.262;2023-02-08T06:30:14;12.17;;;6.37;;
7759;SDS011;3924;48.830;9.262;2023-02-08T06:32:41;11.87;;;7.70;;
7759;SDS011;3924;48.830;9.262;2023-02-08T06:35:08;9.63;;;6.63;;
7759;SDS011;3924;48.830;9.262;2023-02-08T06:37:35;11.13;;;7.13;;
7759;SDS011;3924;48.830;9.262;2023-02-08T06:40:02;12.27;;;7.10;;
7759;SDS011;3924;48.830;9.262;2023-02-08T06:42:30;9.27;;;6.87;;
7759;SDS011;3924;48.830;9.262;2023-02-08T06:44:56;11.60;;;6.70;;
7759;SDS011;3924;48.830;9.262;2023-02-08T06:47:24;11.10;;;6.87;;
7759;SDS011;3924;48.830;9.262;2023-02-08T06:49:52;10.87;;;7.40;;
7759;SDS011;3924;48.830;9.262;2023-02-08T06:52:19;12.27;;;7.40;;
7759;SDS011;3924;48.830;9.262;2023-02-08T06:54:47;10.40;;;6.53;;
7759;SDS011;3924;48.830;9.262;2023-02-08T06:57:13;9.03;;;7.40;;
7759;SDS011;3924;48.830;9.262;2023-02-08T06:59:40;11.97;;;7.73;;
7759;SDS011;3924;48.830;9.262;2023-02-08T07:02:14;17.60;;;7.57;;
7759;SDS011;3924;48.830;9.262;2023-02-08T07:04:42;34.73;;;20.10;;
7759;SDS011;3924;48.830;9.262;2023-02-08T07:07:14;11.47;;;8.23;;
7759;SDS011;3924;48.830;9.262;2023-02-08T07:09:42;13.73;;;9.10;;
7759;SDS011;3924;48.830;9.262;2023-02-08T07:12:10;14.20;;;8.20;;
7759;SDS011;3924;48.830;9.262;2023-02-08T07:14:40;16.57;;;8.77;;
7759;SDS011;3924;48.830;9.262;2023-02-08T07:17:09;10.20;;;7.97;;
7759;SDS011;3924;48.830;9.262;2023-02-08T07:19:36;12.50;;;8.83;;
7759;SDS011;3924;48.830;9.262;2023-02-08T07:22:03;13.30;;;8.10;;
7759;SDS011;3924;48.830;9.262;2023-02-08T07:24:34;13.77;;;7.83;;
7759;SDS011;3924;48.830;9.262;2023-02-08T07:27:04;12.33;;;7.83;;
7759;SDS011;3924;48.830;9.262;2023-02-08T07:29:32;13.57;;;9.27;;
7759;SDS011;3924;48.830;9.262;2023-02-08T07:32:00;16.73;;;8.97;;
7759;SDS011;3924;48.830;9.262;2023-02-08T07:34:28;22.23;;;11.60;;
7759;SDS011;3924;48.830;9.262;2023-02-08T07:36:56;14.23;;;7.93;;
7759;SDS011;3924;48.830;9.262;2023-02-08T07:39:25;9.63;;;5.60;;
7759;SDS011;3924;48.830;9.262;2023-02-08T07:41:52;15.47;;;6.83;;
7759;SDS011;3924;48.830;9.262;2023-02-08T07:44:18;8.73;;;6.07;;
7759;SDS011;3924;48.830;9.262;2023-02-08T07:46:45;10.73;;;6.47;;
7759;SDS011;3924;48.830;9.262;2023-02-08T07:49:12;10.53;;;6.53;;
7759;SDS011;3924;48.830;9.262;2023-02-08T07:51:38;13.73;;;7.60;;
7759;SDS011;3924;48.830;9.262;2023-02-08T07:54:07;13.30;;;7.57;;
7759;SDS011;3924;48.830;9.262;2023-02-08T07:56:34;12.43;;;7.47;;
7759;SDS011;3924;48.830;9.262;2023-02-08T07:59:00;11.20;;;7.80;;
7759;SDS011;3924;48.830;9.262;2023-02-08T08:01:27;11.10;;;7.67;;
7759;SDS011;3924;48.830;9.262;2023-02-08T08:03:53;14.10;;;8.27;;
7759;SDS011;3924;48.830;9.262;2023-02-08T08:06:20;14.27;;;7.60;;
7759;SDS011;3924;48.830;9.262;2023-02-08T08:08:48;11.37;;;8.10;;
7759;SDS011;3924;48.830;9.262;2023-02-08T08:11:15;11.80;;;7.20;;
7759;SDS011;3924;48.830;9.262;2023-02-08T08:13:43;15.20;;;8.30;;
7759;SDS011;3924;48.830;9.262;2023-02-08T08:16:09;12.33;;;7.53;;
7759;SDS011;3924;48.830;9.262;2023-02-08T08:18:36;10.20;;;7.43;;
7759;SDS011;3924;48.830;9.262;2023-02-08T08:21:03;15.07;;;8.23;;
7759;SDS011;3924;48.830;9.262;2023-02-08T08:23:30;11.77;;;7.30;;
7759;SDS011;3924;48.830;9.262;2023-02-08T08:25:58;11.97;;;7.20;;
7759;SDS011;3924;48.830;9.262;2023-02-08T08:28:25;15.43;;;8.63;;
7759;SDS011;3924;48.830;9.262;2023-02-08T08:30:53;14.90;;;7.47;;
7759;SDS011;3924;48.830;9.262;2023-02-08T08:33:20;16.40;;;8.73;;
7759;SDS011;3924;48.830;9.262;2023-02-08T08:35:49;9.70;;;7.50;;
7759;SDS011;3924;48.830;9.262;2023-02-08T08:38:15;12.63;;;7.40;;
7759;SDS011;3924;48.830;9.262;2023-02-08T08:40:42;16.33;;;8.13;;
7759;SDS011;3924;48.830;9.262;2023-02-08T08:43:09;15.43;;;8.90;;
7759;SDS011;3924;48.830;9.262;2023-02-08T08:45:35;14.53;;;7.70;;
7759;SDS011;3924;48.830;9.262;2023-02-08T08:48:04;13.97;;;8.17;;
7759;SDS011;3924;48.830;9.262;2023-02-08T08:50:31;16.50;;;8.40;;
7759;SDS011;3924;48.830;9.262;2023-02-08T08:52:57;12.03;;;6.67;;
7759;SDS011;3924;48.830;9.262;2023-02-08T08:55:23;10.87;;;6.40;;
7759;SDS011;3924;48.830;9.262;2023-02-08T08:57:51;12.27;;;6.70;;
7759;SDS011;3924;48.830;9.262;2023-02-08T09:00:18;10.57;;;6.40;;
7759;SDS011;3924;48.830;9.262;2023-02-08T09:02:45;15.10;;;6.90;;
7759;SDS011;3924;48.830;9.262;2023-02-08T09:05:12;10.00;;;6.57;;
7759;SDS011;3924;48.830;9.262;2023-02-08T09:07:38;9.17;;;6.27;;
7759;SDS011;3924;48.830;9.262;2023-02-08T09:10:04;17.67;;;7.53;;
7759;SDS011;3924;48.830;9.262;2023-02-08T09:12:31;9.77;;;6.47;;
7759;SDS011;3924;48.830;9.262;2023-02-08T09:14:58;10.87;;;7.13;;
7759;SDS011;3924;48.830;9.262;2023-02-08T09:17:24;12.83;;;7.23;;
7759;SDS011;3924;48.830;9.262;2023-02-08T09:19:51;9.77;;;6.13;;
7759;SDS011;3924;48.830;9.262;2023-02-08T09:22:17;12.33;;;7.87;;
7759;SDS011;3924;48.830;9.262;2023-02-08T09:24:45;13.00;;;6.27;;
7759;SDS011;3924;48.830;9.262;2023-02-08T09:27:11;9.40;;;6.43;;
7759;SDS011;3924;48.830;9.262;2023-02-08T09:29:37;19.47;;;11.13;;
7759;SDS011;3924;48.830;9.262;2023-02-08T09:32:04;13.20;;;7.47;;
7759;SDS011;3924;48.830;9.262;2023-02-08T09:34:30;11.13;;;8.07;;
7759;SDS011;3924;48.830;9.262;2023-02-08T09:36:57;11.37;;;7.00;;
7759;SDS011;3924;48.830;9.262;2023-02-08T09:39:24;10.80;;;6.90;;
7759;SDS011;3924;48.830;9.262;2023-02-08T09:41:58;11.70;;;6.70;;
7759;SDS011;3924;48.830;9.262;2023-02-08T09:44:52;10.37;;;6.70;;
7759;SDS011;3924;48.830;9.262;2023-02-08T09:53:36;13.20;;;7.03;;
7759;SDS011;3924;48.830;9.262;2023-02-08T09:56:13;12.60;;;7.13;;
7759;SDS011;3924;48.830;9.262;2023-02-08T09:58:45;11.60;;;6.90;;
7759;SDS011;3924;48.830;9.262;2023-02-08T10:01:15;14.77;;;7.70;;
7759;SDS011;3924;48.830;9.262;2023-02-08T10:03:46;7.47;;;4.93;;
7759;SDS011;3924;48.830;9.262;2023-02-08T10:06:16;11.53;;;6.33;;
7759;SDS011;3924;48.830;9.262;2023-02-08T10:08:45;21.37;;;7.60;;
7759;SDS011;3924;48.830;9.262;2023-02-08T10:19:49;16.20;;;6.90;;
7759;SDS011;3924;48.830;9.262;2023-02-08T10:28:20;12.37;;;7.23;;
7759;SDS011;3924;48.830;9.262;2023-02-08T10:36:32;9.70;;;6.20;;
7759;SDS011;3924;48.830;9.262;2023-02-08T10:39:08;11.00;;;6.37;;
7759;SDS011;3924;48.830;9.262;2023-02-08T10:41:42;12.77;;;6.67;;
7759;SDS011;3924;48.830;9.262;2023-02-08T10:44:20;7.60;;;5.87;;
7759;SDS011;3924;48.830;9.262;2023-02-08T10:47:12;8.87;;;5.80;;
7759;SDS011;3924;48.830;9.262;2023-02-08T10:50:21;9.73;;;6.10;;
7759;SDS011;3924;48.830;9.262;2023-02-08T10:52:47;12.63;;;6.43;;
7759;SDS011;3924;48.830;9.262;2023-02-08T10:55:15;9.37;;;6.40;;
7759;SDS011;3924;48.830;9.262;2023-02-08T10:57:44;11.83;;;6.50;;
7759;SDS011;3924;48.830;9.262;2023-02-08T11:00:18;12.07;;;5.90;;
7759;SDS011;3924;48.830;9.262;2023-02-08T11:02:48;15.73;;;5.90;;
7759;SDS011;3924;48.830;9.262;2023-02-08T11:05:34;9.07;;;5.37;;
7759;SDS011;3924;48.830;9.262;2023-02-08T11:10:31;11.70;;;5.47;;
7759;SDS011;3924;48.830;9.262;2023-02-08T11:12:59;10.07;;;4.83;;
7759;SDS011;3924;48.830;9.262;2023-02-08T11:15:28;8.00;;;5.57;;
7759;SDS011;3924;48.830;9.262;2023-02-08T11:17:59;8.40;;;5.70;;
7759;SDS011;3924;48.830;9.262;2023-02-08T11:20:32;6.77;;;4.73;;
7759;SDS011;3924;48.830;9.262;2023-02-08T11:23:03;9.77;;;6.20;;
7759;SDS011;3924;48.830;9.262;2023-02-08T11:25:35;9.17;;;5.77;;
7759;SDS011;3924;48.830;9.262;2023-02-08T11:28:04;14.57;;;5.57;;
7759;SDS011;3924;48.830;9.262;2023-02-08T11:30:57;7.70;;;4.87;;
7759;SDS011;3924;48.830;9.262;2023-02-08T11:33:25;8.97;;;5.73;;
7759;SDS011;3924;48.830;9.262;2023-02-08T11:35:58;6.17;;;5.20;;
7759;SDS011;3924;48.830;9.262;2023-02-08T11:38:33;12.67;;;6.30;;
7759;SDS011;3924;48.830;9.262;2023-02-08T11:41:03;8.17;;;5.23;;
7759;SDS011;3924;48.830;9.262;2023-02-08T11:43:38;9.27;;;5.70;;
7759;SDS011;3924;48.830;9.262;2023-02-08T11:46:05;11.67;;;5.37;;
7759;SDS011;3924;48.830;9.262;2023-02-08T11:48:39;9.10;;;5.53;;
7759;SDS011;3924;48.830;9.262;2023-02-08T11:51:11;7.90;;;5.50;;
7759;SDS011;3924;48.830;9.262;2023-02-08T11:53:41;6.63;;;4.40;;
7759;SDS011;3924;48.830;9.262;2023-02-08T11:56:15;8.77;;;4.77;;
7759;SDS011;3924;48.830;9.262;2023-02-08T12:01:44;7.30;;;3.60;;
7759;SDS011;3924;48.830;9.262;2023-02-08T12:04:14;5.33;;;3.77;;
7759;SDS011;3924;48.830;9.262;2023-02-08T12:09:31;8.97;;;5.60;;
7759;SDS011;3924;48.830;9.262;2023-02-08T12:15:23;4.80;;;3.80;;
7759;SDS011;3924;48.830;9.262;2023-02-08T12:19:08;4.97;;;3.60;;
7759;SDS011;3924;48.830;9.262;2023-02-08T12:21:24;5.47;;;3.53;;
7759;SDS011;3924;48.830;9.262;2023-02-08T12:24:00;5.03;;;3.00;;
7759;SDS011;3924;48.830;9.262;2023-02-08T12:29:05;4.23;;;3.13;;
7759;SDS011;3924;48.830;9.262;2023-02-08T12:34:35;10.87;;;3.73;;
7759;SDS011;3924;48.830;9.262;2023-02-08T12:37:24;4.37;;;3.10;;
7759;SDS011;3924;48.830;9.262;2023-02-08T12:40:21;6.07;;;3.00;;
7759;SDS011;3924;48.830;9.262;2023-02-08T12:48:40;3.57;;;3.07;;
7759;SDS011;3924;48.830;9.262;2023-02-08T12:56:58;4.87;;;2.90;;
7759;SDS011;3924;48.830;9.262;2023-02-08T12:59:39;6.17;;;3.27;;
7759;SDS011;3924;48.830;9.262;2023-02-08T13:02:16;7.03;;;3.67;;
7759;SDS011;3924;48.830;9.262;2023-02-08T13:04:48;7.27;;;3.93;;
7759;SDS011;3924;48.830;9.262;2023-02-08T13:07:23;3.47;;;3.17;;
7759;SDS011;3924;48.830;9.262;2023-02-08T13:18:24;2.93;;;2.63;;
7759;SDS011;3924;48.830;9.262;2023-02-08T13:21:00;3.40;;;2.83;;
7759;SDS011;3924;48.830;9.262;2023-02-08T13:23:35;2.80;;;2.60;;
7759;SDS011;3924;48.830;9.262;2023-02-08T13:28:52;6.13;;;3.03;;
7759;SDS011;3924;48.830;9.262;2023-02-08T13:31:28;3.77;;;3.23;;
7759;SDS011;3924;48.830;9.262;2023-02-08T13:34:00;4.20;;;3.40;;
7759;SDS011;3924;48.830;9.262;2023-02-08T13:36:37;4.60;;;3.27;;
7759;SDS011;3924;48.830;9.262;2023-02-08T13:39:07;4.33;;;3.00;;
7759;SDS011;3924;48.830;9.262;2023-02-08T13:41:50;5.00;;;3.33;;
7759;SDS011;3924;48.830;9.262;2023-02-08T13:44:28;4.63;;;3.33;;
7759;SDS011;3924;48.830;9.262;2023-02-08T13:47:26;4.73;;;3.80;;
7759;SDS011;3924;48.830;9.262;2023-02-08T13:53:15;5.03;;;3.20;;
7759;SDS011;3924;48.830;9.262;2023-02-08T13:56:08;6.87;;;4.00;;
7759;SDS011;3924;48.830;9.262;2023-02-08T14:02:26;4.20;;;3.50;;
7759;SDS011;3924;48.830;9.262;2023-02-08T14:05:31;5.77;;;3.33;;
7759;SDS011;3924;48.830;9.262;2023-02-08T14:11:58;6.03;;;3.43;;
7759;SDS011;3924;48.830;9.262;2023-02-08T14:18:02;3.57;;;3.13;;
7759;SDS011;3924;48.830;9.262;2023-02-08T14:20:33;6.37;;;4.63;;
7759;SDS011;3924;48.830;9.262;2023-02-08T14:23:26;7.77;;;4.30;;
7759;SDS011;3924;48.830;9.262;2023-02-08T14:25:53;6.70;;;3.80;;
7759;SDS011;3924;48.830;9.262;2023-02-08T14:28:22;5.37;;;4.30;;
7759;SDS011;3924;48.830;9.262;2023-02-08T14:30:51;8.77;;;4.00;;
7759;SDS011;3924;48.830;9.262;2023-02-08T14:33:27;7.43;;;4.57;;
7759;SDS011;3924;48.830;9.262;2023-02-08T14:36:07;6.37;;;4.63;;
7759;SDS011;3924;48.830;9.262;2023-02-08T14:39:20;5.00;;;3.97;;
7759;SDS011;3924;48.830;9.262;2023-02-08T14:41:52;8.10;;;4.40;;
7759;SDS011;3924;48.830;9.262;2023-02-08T14:50:07;9.60;;;3.90;;
7759;SDS011;3924;48.830;9.262;2023-02-08T14:52:42;6.13;;;4.17;;
7759;SDS011;3924;48.830;9.262;2023-02-08T14:55:22;7.07;;;4.73;;
7759;SDS011;3924;48.830;9.262;2023-02-08T14:57:53;8.30;;;4.27;;
7759;SDS011;3924;48.830;9.262;2023-02-08T15:00:22;7.97;;;4.37;;
7759;SDS011;3924;48.830;9.262;2023-02-08T15:02:52;8.20;;;4.10;;
7759;SDS011;3924;48.830;9.262;2023-02-08T15:05:23;4.57;;;3.87;;
7759;SDS011;3924;48.830;9.262;2023-02-08T15:07:58;5.00;;;3.27;;
7759;SDS011;3924;48.830;9.262;2023-02-08T15:10:27;5.63;;;3.77;;
7759;SDS011;3924;48.830;9.262;2023-02-08T15:12:56;9.00;;;4.27;;
7759;SDS011;3924;48.830;9.262;2023-02-08T15:15:30;4.63;;;4.03;;
7759;SDS011;3924;48.830;9.262;2023-02-08T15:18:00;6.23;;;4.20;;
7759;SDS011;3924;48.830;9.262;2023-02-08T15:20:28;6.53;;;4.20;;
7759;SDS011;3924;48.830;9.262;2023-02-08T15:22:58;6.53;;;4.47;;
7759;SDS011;3924;48.830;9.262;2023-02-08T15:25:25;5.43;;;4.10;;
7759;SDS011;3924;48.830;9.262;2023-02-08T15:28:03;13.90;;;4.87;;
7759;SDS011;3924;48.830;9.262;2023-02-08T15:30:42;6.47;;;4.40;;
7759;SDS011;3924;48.830;9.262;2023-02-08T15:33:14;7.07;;;4.07;;
7759;SDS011;3924;48.830;9.262;2023-02-08T15:35:43;8.87;;;4.97;;
7759;SDS011;3924;48.830;9.262;2023-02-08T15:38:15;7.97;;;4.47;;
7759;SDS011;3924;48.830;9.262;2023-02-08T15:40:57;7.07;;;4.27;;
7759;SDS011;3924;48.830;9.262;2023-02-08T15:43:31;6.20;;;3.90;;
7759;SDS011;3924;48.830;9.262;2023-02-08T15:45:59;4.93;;;3.77;;
7759;SDS011;3924;48.830;9.262;2023-02-08T15:48:27;6.50;;;4.17;;
7759;SDS011;3924;48.830;9.262;2023-02-08T15:50:55;5.73;;;4.20;;
7759;SDS011;3924;48.830;9.262;2023-02-08T15:53:22;7.63;;;4.53;;
7759;SDS011;3924;48.830;9.262;2023-02-08T15:58:27;8.63;;;4.90;;
7759;SDS011;3924;48.830;9.262;2023-02-08T16:00:58;7.87;;;4.60;;
7759;SDS011;3924;48.830;9.262;2023-02-08T16:03:27;11.23;;;5.17;;
7759;SDS011;3924;48.830;9.262;2023-02-08T16:05:56;9.43;;;4.93;;
7759;SDS011;3924;48.830;9.262;2023-02-08T16:08:26;8.73;;;4.77;;
7759;SDS011;3924;48.830;9.262;2023-02-08T16:10:58;8.33;;;5.43;;
7759;SDS011;3924;48.830;9.262;2023-02-08T16:13:29;7.80;;;4.60;;
7759;SDS011;3924;48.830;9.262;2023-02-08T16:21:25;12.03;;;6.03;;
7759;SDS011;3924;48.830;9.262;2023-02-08T16:23:53;9.80;;;5.97;;
7759;SDS011;3924;48.830;9.262;2023-02-08T16:26:25;15.97;;;8.50;;
7759;SDS011;3924;48.830;9.262;2023-02-08T16:28:55;9.83;;;6.23;;
7759;SDS011;3924;48.830;9.262;2023-02-08T16:31:25;8.60;;;6.07;;
7759;SDS011;3924;48.830;9.262;2023-02-08T16:33:56;7.73;;;5.20;;
7759;SDS011;3924;48.830;9.262;2023-02-08T16:36:25;8.50;;;6.00;;
7759;SDS011;3924;48.830;9.262;2023-02-08T16:44:26;10.00;;;5.70;;
7759;SDS011;3924;48.830;9.262;2023-02-08T16:46:57;9.20;;;6.63;;
7759;SDS011;3924;48.830;9.262;2023-02-08T16:49:24;9.57;;;5.67;;
7759;SDS011;3924;48.830;9.262;2023-02-08T16:51:59;8.53;;;5.97;;
7759;SDS011;3924;48.830;9.262;2023-02-08T16:54:26;8.47;;;6.00;;
7759;SDS011;3924;48.830;9.262;2023-02-08T16:56:55;11.70;;;5.87;;
7759;SDS011;3924;48.830;9.262;2023-02-08T16:59:27;8.67;;;5.37;;
7759;SDS011;3924;48.830;9.262;2023-02-08T17:01:54;8.33;;;5.57;;
7759;SDS011;3924;48.830;9.262;2023-02-08T17:04:22;10.13;;;6.60;;
7759;SDS011;3924;48.830;9.262;2023-02-08T17:06:52;10.10;;;4.95;;
7759;SDS011;3924;48.830;9.262;2023-02-08T17:09:19;10.27;;;5.97;;
7759;SDS011;3924;48.830;9.262;2023-02-08T17:11:45;10.57;;;7.33;;
7759;SDS011;3924;48.830;9.262;2023-02-08T17:14:12;9.87;;;6.43;;
7759;SDS011;3924;48.830;9.262;2023-02-08T17:16:38;8.97;;;5.83;;
7759;SDS011;3924;48.830;9.262;2023-02-08T17:19:05;9.97;;;6.30;;
7759;SDS011;3924;48.830;9.262;2023-02-08T17:21:32;13.17;;;6.93;;
7759;SDS011;3924;48.830;9.262;2023-02-08T17:23:58;11.70;;;7.70;;
7759;SDS011;3924;48.830;9.262;2023-02-08T17:26:27;11.23;;;6.90;;
7759;SDS011;3924;48.830;9.262;2023-02-08T17:28:57;13.73;;;7.57;;
7759;SDS011;3924;48.830;9.262;2023-02-08T17:31:24;7.47;;;5.60;;
7759;SDS011;3924;48.830;9.262;2023-02-08T17:33:54;11.03;;;6.90;;
7759;SDS011;3924;48.830;9.262;2023-02-08T17:36:23;10.13;;;7.07;;
7759;SDS011;3924;48.830;9.262;2023-02-08T17:38:49;9.03;;;6.90;;
7759;SDS011;3924;48.830;9.262;2023-02-08T17:41:18;12.13;;;7.50;;
7759;SDS011;3924;48.830;9.262;2023-02-08T17:43:48;9.97;;;6.50;;
7759;SDS011;3924;48.830;9.262;2023-02-08T17:46:18;10.97;;;6.33;;
7759;SDS011;3924;48.830;9.262;2023-02-08T17:48:49;9.40;;;5.93;;
7759;SDS011;3924;48.830;9.262;2023-02-08T17:51:17;7.50;;;5.10;;